Accueil
METAR-TAF:

METAR-TAF

Aéroports :

Aéroport d'Osijek

Osijek, Croatie

latitude: 45-27N, longitude: 018-48E, altitude: 88 m

Observation

Le bulletin a été fait il y a 19 minutes, à 00:00 UTC
Vent 8 kt de ouest/nord-ouest
Température 5°C
Humidité 70%
Pression 1014 hPa
Visibilité 10 km ou plus
pas de nuages en-dessous de 1500 mètres et pas de cumulonimbus.

METAR: LDOS 300000Z 30008KT CAVOK 05/M00 Q1014

Heure: 02:19 (00:19 UTC)

Prévision

Le bulletin a été fait il y a 54 minutes, à 23:25 UTC
Prévision valable du 30 à 00 UTC au 31 à 00 UTC
Vent 14 kt de nord-ouest
Visibilité 10 km ou plus
pas de nuages en-dessous de 1500 mètres et pas de cumulonimbus.
Evoluant progressivement
du 30 à 18 UTC au 30 à 20 UTC
Vent 6 kt de nord-ouest

TAF: LDOS 292325Z 3000/3100 32014KT CAVOK TX10/3013Z TN04/3023Z BECMG 3018/3020 32006KT

Observations et prévisions météorologiques de plus de 4000 aéroports (messages METAR et TAF).

Les stations disponibles sont représentées par des disques jaunes et rouges sur la carte.

Passer la souris dessus pour voir le nom de la station.

Cliquer dessus pour voir les observations et prévisions météorologiques.

Pour changer de carte: cliquez sur les boutons verts avec une croix noire pour zoomer, sur le bouton vert avec un tiret pour effectuer un zoom arrière, ou sur les flèches vertes pour les cartes adjacentes.


METAR-TAF: